Time,TemperatureF,DewpointF,PressureIn,WindDirection,WindDirectionDegrees,WindSpeedMPH,WindSpeedGustMPH,Humidity,HourlyPrecipIn,Conditions,Clouds,dailyrainin,SoftwareType,DateUTC
2013-06-04 00:02:00,39.7,37.6,30.13,NW,308,5.8,7.6,92,0.00,,CLR,0.00,VWS V14.01,2013-06-04 06:02:00,
2013-06-04 00:07:00,39.7,37.6,30.13,NNW,332,6.3,10.5,92,0.00,,CLR,0.00,VWS V14.01,2013-06-04 06:07:00,
2013-06-04 00:12:00,39.6,37.4,30.13,North,0,5.4,10.5,92,0.00,,CLR,0.00,VWS V14.01,2013-06-04 06:12:00,
2013-06-04 00:17:00,39.6,37.4,30.13,North,350,7.6,10.5,92,0.00,,CLR,0.00,VWS V14.01,2013-06-04 06:17:00,
2013-06-04 00:22:00,39.6,36.3,30.13,NNW,332,8.7,12.8,88,0.00,,CLR,0.00,VWS V14.01,2013-06-04 06:22:00,
2013-06-04 00:27:00,39.7,36.8,30.13,NW,326,5.8,15.0,89,0.00,,CLR,0.00,VWS V14.01,2013-06-04 06:27:00,
2013-06-04 00:32:00,39.9,36.4,30.13,NNW,345,5.4,8.3,87,0.00,,CLR,0.00,VWS V14.01,2013-06-04 06:32:00,
2013-06-04 00:37:00,40.1,36.5,30.13,NNW,332,4.5,8.7,87,0.00,,CLR,0.00,VWS V14.01,2013-06-04 06:37:00,
2013-06-04 00:42:00,39.9,35.8,30.13,NNW,327,6.3,10.5,85,0.00,,CLR,0.00,VWS V14.01,2013-06-04 06:42:00,
2013-06-04 00:47:00,39.6,35.7,30.13,NW,323,6.3,15.0,86,0.00,,CLR,0.00,VWS V14.01,2013-06-04 06:47:00,
2013-06-04 00:52:00,39.6,35.1,30.13,NW,315,5.4,15.0,84,0.00,,CLR,0.00,VWS V14.01,2013-06-04 06:52:00,
2013-06-04 00:57:00,39.7,34.7,30.13,North,353,8.1,15.0,82,0.00,,CLR,0.00,VWS V14.01,2013-06-04 06:57:00,
2013-06-04 01:02:00,39.9,34.6,30.13,NNW,333,8.7,8.7,81,0.00,,CLR,0.00,VWS V14.01,2013-06-04 07:02:00,
2013-06-04 01:07:00,39.7,34.4,30.13,NNW,334,5.4,10.1,81,0.00,,BKN023,0.00,VWS V14.01,2013-06-04 07:07:00,
2013-06-04 01:12:00,40.1,34.1,30.13,NW,311,5.8,11.0,79,0.00,,BKN023,0.00,VWS V14.01,2013-06-04 07:12:00,
2013-06-04 01:17:00,40.1,33.8,30.13,NNW,330,8.3,11.0,78,0.00,,BKN023,0.00,VWS V14.01,2013-06-04 07:17:00,
2013-06-04 01:22:00,40.1,33.8,30.13,NW,319,8.1,11.0,78,0.00,,BKN023,0.00,VWS V14.01,2013-06-04 07:22:00,
2013-06-04 01:27:00,40.1,33.8,30.13,NW,325,7.6,11.0,78,0.00,,BKN023,0.00,VWS V14.01,2013-06-04 07:27:00,
2013-06-04 01:32:00,40.1,33.5,30.13,North,353,5.8,5.8,77,0.00,,BKN023,0.00,VWS V14.01,2013-06-04 07:32:00,
2013-06-04 01:37:00,40.1,34.1,30.13,West,271,4.9,8.1,79,0.00,,BKN023,0.00,VWS V14.01,2013-06-04 07:37:00,
2013-06-04 01:42:00,40.1,33.8,30.13,WNW,297,3.6,8.1,78,0.00,,BKN023,0.00,VWS V14.01,2013-06-04 07:42:00,
2013-06-04 01:47:00,39.7,33.5,30.13,West,281,6.7,8.1,78,0.00,,BKN023,0.00,VWS V14.01,2013-06-04 07:47:00,
2013-06-04 01:52:00,39.7,33.5,30.13,North,3,3.6,8.3,78,0.00,,BKN023,0.00,VWS V14.01,2013-06-04 07:52:00,
2013-06-04 01:57:00,39.6,33.9,30.13,NW,324,3.6,8.3,80,0.00,,BKN023,0.00,VWS V14.01,2013-06-04 07:57:00,
2013-06-04 02:02:00,39.7,34.1,30.13,NNW,342,3.6,4.0,80,0.00,,BKN023,0.00,VWS V14.01,2013-06-04 08:02:00,
2013-06-04 02:07:00,39.6,33.9,30.13,North,350,4.9,6.3,80,0.00,,BKN023,0.00,VWS V14.01,2013-06-04 08:07:00,
2013-06-04 02:12:00,39.7,34.1,30.13,NNE,12,3.1,6.3,80,0.00,,BKN023,0.00,VWS V14.01,2013-06-04 08:12:00,
2013-06-04 02:17:00,39.7,34.4,30.13,NNE,16,2.7,6.7,81,0.00,,BKN023,0.00,VWS V14.01,2013-06-04 08:17:00,
2013-06-04 02:22:00,39.7,34.7,30.13,WNW,302,3.6,6.7,82,0.00,,BKN023,0.00,VWS V14.01,2013-06-04 08:22:00,
2013-06-04 02:27:00,40.1,34.4,30.13,NNW,344,5.4,8.1,80,0.00,,BKN023,0.00,VWS V14.01,2013-06-04 08:27:00,
2013-06-04 02:32:00,40.1,34.1,30.13,North,353,5.4,5.4,79,0.00,,BKN023,0.00,VWS V14.01,2013-06-04 08:32:00,
2013-06-04 02:37:00,40.1,34.4,30.13,North,6,3.6,8.1,80,0.00,,BKN023,0.00,VWS V14.01,2013-06-04 08:37:00,
2013-06-04 02:42:00,39.7,35.3,30.13,NNE,21,3.6,8.1,84,0.00,,BKN023,0.00,VWS V14.01,2013-06-04 08:42:00,
2013-06-04 02:47:00,39.4,35.8,30.13,NE,48,3.1,8.1,87,0.00,,BKN023,0.00,VWS V14.01,2013-06-04 08:47:00,
2013-06-04 02:52:00,39.0,36.1,30.16,NNE,25,6.3,8.7,89,0.00,,BKN023,0.00,VWS V14.01,2013-06-04 08:52:00,
2013-06-04 02:57:00,38.8,36.2,30.16,NNE,14,5.4,8.7,90,0.00,,BKN023,0.00,VWS V14.01,2013-06-04 08:57:00,
2013-06-04 03:02:00,38.8,36.4,30.16,North,353,5.4,7.6,91,0.00,,BKN023,0.00,VWS V14.01,2013-06-04 09:02:00,
2013-06-04 03:07:00,38.8,36.4,30.16,NNE,23,5.4,7.6,91,0.00,,OVC025,0.00,VWS V14.01,2013-06-04 09:07:00,
2013-06-04 03:12:00,38.7,36.5,30.16,NNE,26,4.0,7.6,92,0.00,,OVC025,0.00,VWS V14.01,2013-06-04 09:12:00,
2013-06-04 03:17:00,38.7,36.5,30.16,North,5,3.6,7.6,92,0.00,,OVC025,0.00,VWS V14.01,2013-06-04 09:17:00,
2013-06-04 03:22:00,38.7,36.8,30.16,NNE,18,5.8,7.6,93,0.00,,OVC025,0.00,VWS V14.01,2013-06-04 09:22:00,
2013-06-04 03:27:00,38.8,37.0,30.16,North,9,5.4,7.6,93,0.00,,OVC025,0.00,VWS V14.01,2013-06-04 09:27:00,
2013-06-04 03:32:00,38.7,36.8,30.16,NNE,16,6.3,6.3,93,0.00,,OVC025,0.00,VWS V14.01,2013-06-04 09:32:00,
2013-06-04 03:37:00,38.5,36.9,30.16,NNE,15,5.4,7.6,94,0.00,,OVC025,0.00,VWS V14.01,2013-06-04 09:37:00,
2013-06-04 03:42:00,38.5,36.9,30.16,NNE,17,4.0,7.6,94,0.00,,OVC025,0.00,VWS V14.01,2013-06-04 09:42:00,
2013-06-04 03:47:00,38.5,36.9,30.16,NNE,18,4.9,7.6,94,0.00,,OVC025,0.00,VWS V14.01,2013-06-04 09:47:00,
2013-06-04 03:52:00,38.7,37.1,30.16,North,3,3.6,7.6,94,0.00,,OVC025,0.00,VWS V14.01,2013-06-04 09:52:00,
2013-06-04 03:57:00,38.7,37.1,30.16,NW,316,6.3,7.6,94,0.00,,OVC025,0.00,VWS V14.01,2013-06-04 09:57:00,
2013-06-04 04:02:00,38.7,37.3,30.16,North,10,2.7,4.9,95,0.00,,OVC025,0.00,VWS V14.01,2013-06-04 10:02:00,
2013-06-04 04:07:00,38.7,37.1,30.16,NE,38,3.1,4.9,94,0.00,,OVC025,0.00,VWS V14.01,2013-06-04 10:07:00,
2013-06-04 04:12:00,38.7,37.1,30.16,NE,43,4.9,4.9,94,0.00,,OVC025,0.00,VWS V14.01,2013-06-04 10:12:00,
2013-06-04 04:17:00,38.7,37.3,30.16,ENE,62,3.6,4.9,95,0.00,,OVC025,0.00,VWS V14.01,2013-06-04 10:17:00,
2013-06-04 04:22:00,38.5,36.9,30.16,North,353,5.4,6.3,94,0.00,,OVC025,0.00,VWS V14.01,2013-06-04 10:22:00,
2013-06-04 04:27:00,38.7,36.8,30.16,North,357,2.7,6.3,93,0.00,,OVC025,0.00,VWS V14.01,2013-06-04 10:27:00,
2013-06-04 04:32:00,38.7,36.8,30.16,NNE,27,5.4,6.3,93,0.00,,OVC025,0.00,VWS V14.01,2013-06-04 10:32:00,
2013-06-04 04:37:00,38.7,36.8,30.16,NE,48,3.1,6.3,93,0.00,,OVC025,0.00,VWS V14.01,2013-06-04 10:37:00,
2013-06-04 04:42:00,38.5,36.6,30.16,North,9,3.1,6.3,93,0.00,,OVC025,0.00,VWS V14.01,2013-06-04 10:42:00,
2013-06-04 04:47:00,38.1,36.5,30.16,NE,36,4.0,6.3,94,0.00,,OVC025,0.00,VWS V14.01,2013-06-04 10:47:00,
2013-06-04 04:52:00,38.1,36.5,30.16,North,11,2.2,6.3,94,0.00,,OVC025,0.00,VWS V14.01,2013-06-04 10:52:00,
2013-06-04 04:57:00,37.9,36.4,30.16,NNE,32,2.7,6.3,94,0.00,,OVC025,0.00,VWS V14.01,2013-06-04 10:57:00,
2013-06-04 05:02:00,38.1,36.5,30.16,ENE,75,3.1,3.1,94,0.00,,OVC025,0.00,VWS V14.01,2013-06-04 11:02:00,
2013-06-04 05:07:00,37.9,36.4,30.16,ENE,62,0.0,3.6,94,0.00,,OVC029,0.00,VWS V14.01,2013-06-04 11:07:00,
2013-06-04 05:12:00,37.9,36.4,30.16,ENE,77,4.0,4.0,94,0.00,,OVC029,0.00,VWS V14.01,2013-06-04 11:12:00,
2013-06-04 05:17:00,37.6,36.0,30.16,NE,50,3.1,4.9,94,0.00,,OVC029,0.00,VWS V14.01,2013-06-04 11:17:00,
2013-06-04 05:22:00,37.6,36.3,30.16,East,93,0.0,4.9,95,0.00,,OVC029,0.00,VWS V14.01,2013-06-04 11:22:00,
2013-06-04 05:27:00,37.8,36.5,30.16,ESE,116,2.2,4.9,95,0.00,,OVC029,0.00,VWS V14.01,2013-06-04 11:27:00,
2013-06-04 05:32:00,37.8,36.5,30.16,ESE,116,0.0,0.0,95,0.00,,OVC029,0.00,VWS V14.01,2013-06-04 11:32:00,
2013-06-04 05:37:00,37.8,36.5,30.16,ESE,104,0.0,2.7,95,0.00,,OVC029,0.00,VWS V14.01,2013-06-04 11:37:00,
2013-06-04 05:42:00,37.6,36.3,30.16,ESE,104,0.0,2.7,95,0.00,,OVC029,0.00,VWS V14.01,2013-06-04 11:42:00,
2013-06-04 05:47:00,37.4,36.1,30.16,NNE,22,0.0,2.7,95,0.00,,OVC029,0.00,VWS V14.01,2013-06-04 11:47:00,
2013-06-04 05:52:00,37.4,36.1,30.16,NNW,343,2.7,4.9,95,0.00,,OVC029,0.00,VWS V14.01,2013-06-04 11:52:00,
2013-06-04 05:57:00,37.8,36.5,30.16,North,4,3.6,5.8,95,0.00,,OVC029,0.00,VWS V14.01,2013-06-04 11:57:00,
2013-06-04 06:02:00,37.6,36.3,30.16,North,0,3.6,7.2,95,0.00,,OVC029,0.00,VWS V14.01,2013-06-04 12:02:00,
2013-06-04 06:07:00,37.8,36.5,30.16,North,353,3.6,7.2,95,0.00,,OVC029,0.00,VWS V14.01,2013-06-04 12:07:00,
2013-06-04 06:12:00,37.8,36.5,30.16,North,0,5.4,7.2,95,0.00,,OVC029,0.00,VWS V14.01,2013-06-04 12:12:00,
2013-06-04 06:17:00,37.9,36.6,30.16,North,357,4.0,7.2,95,0.00,,OVC029,0.00,VWS V14.01,2013-06-04 12:17:00,
2013-06-04 06:22:00,37.9,36.6,30.16,North,350,2.2,7.2,95,0.00,,OVC029,0.00,VWS V14.01,2013-06-04 12:22:00,
2013-06-04 06:27:00,37.9,36.6,30.16,North,0,2.2,7.2,95,0.00,,OVC029,0.00,VWS V14.01,2013-06-04 12:27:00,
2013-06-04 06:32:00,37.9,36.6,30.16,North,357,3.1,3.1,95,0.00,,OVC029,0.00,VWS V14.01,2013-06-04 12:32:00,
2013-06-04 06:37:00,38.1,36.8,30.19,North,6,2.7,5.8,95,0.00,,OVC029,0.00,VWS V14.01,2013-06-04 12:37:00,
2013-06-04 06:42:00,39.0,37.7,30.19,NNE,18,2.2,6.3,95,0.00,,OVC029,0.00,VWS V14.01,2013-06-04 12:42:00,
2013-06-04 06:47:00,40.8,39.5,30.19,NNE,17,0.0,6.3,95,0.00,,OVC029,0.00,VWS V14.01,2013-06-04 12:47:00,
2013-06-04 06:52:00,39.6,38.0,30.19,NE,51,2.7,6.3,94,0.00,,OVC029,0.00,VWS V14.01,2013-06-04 12:52:00,
2013-06-04 06:57:00,39.4,37.2,30.19,NE,41,3.6,6.3,92,0.00,,OVC029,0.00,VWS V14.01,2013-06-04 12:57:00,
2013-06-04 07:02:00,38.8,36.4,30.19,North,10,2.7,4.0,91,0.00,,OVC029,0.00,VWS V14.01,2013-06-04 13:02:00,
2013-06-04 07:07:00,38.8,36.4,30.19,NNE,23,3.6,5.8,91,0.00,,OVC016,0.00,VWS V14.01,2013-06-04 13:07:00,
2013-06-04 07:12:00,38.8,36.2,30.19,NNE,27,4.0,5.8,90,0.00,,OVC016,0.00,VWS V14.01,2013-06-04 13:12:00,
2013-06-04 07:17:00,39.2,36.2,30.19,North,11,2.7,5.8,89,0.00,,OVC016,0.00,VWS V14.01,2013-06-04 13:17:00,
2013-06-04 07:22:00,38.8,35.6,30.19,NNE,12,4.0,5.8,88,0.00,,OVC016,0.00,VWS V14.01,2013-06-04 13:22:00,
2013-06-04 07:27:00,38.7,35.4,30.19,NE,52,5.4,5.8,88,0.00,,OVC016,0.00,VWS V14.01,2013-06-04 13:27:00,
2013-06-04 07:32:00,38.7,35.7,30.19,NE,41,4.9,4.9,89,0.00,,OVC016,0.00,VWS V14.01,2013-06-04 13:32:00,
2013-06-04 07:37:00,38.1,34.9,30.19,ENE,60,3.6,4.9,88,0.00,,OVC016,0.00,VWS V14.01,2013-06-04 13:37:00,
2013-06-04 07:42:00,38.5,35.2,30.19,North,11,2.7,4.9,88,0.00,,OVC016,0.00,VWS V14.01,2013-06-04 13:42:00,
2013-06-04 07:47:00,38.7,35.7,30.19,NE,41,0.0,4.9,89,0.00,,OVC016,0.00,VWS V14.01,2013-06-04 13:47:00,
2013-06-04 07:52:00,38.7,35.4,30.19,NE,39,2.7,4.9,88,0.00,,OVC016,0.00,VWS V14.01,2013-06-04 13:52:00,
2013-06-04 07:57:00,38.7,35.4,30.19,North,0,2.7,4.9,88,0.00,,OVC016,0.00,VWS V14.01,2013-06-04 13:57:00,
2013-06-04 08:02:00,38.5,35.2,30.19,North,3,4.0,4.0,88,0.00,,OVC016,0.00,VWS V14.01,2013-06-04 14:02:00,
2013-06-04 08:07:00,38.5,35.2,30.19,NNW,335,4.0,4.9,88,0.00,,OVC016,0.00,VWS V14.01,2013-06-04 14:07:00,
2013-06-04 08:12:00,38.3,35.1,30.19,North,11,0.0,4.9,88,0.00,,OVC016,0.00,VWS V14.01,2013-06-04 14:12:00,
2013-06-04 08:17:00,38.1,34.9,30.19,North,8,3.6,4.9,88,0.00,,OVC016,0.00,VWS V14.01,2013-06-04 14:17:00,
2013-06-04 08:22:00,37.9,34.7,30.19,North,7,6.3,6.3,88,0.00,,OVC016,0.00,VWS V14.01,2013-06-04 14:22:00,
2013-06-04 08:27:00,37.9,34.4,30.19,North,357,5.4,6.3,87,0.00,,OVC016,0.00,VWS V14.01,2013-06-04 14:27:00,
2013-06-04 08:32:00,37.9,34.7,30.19,NNE,26,4.0,4.0,88,0.00,,OVC016,0.00,VWS V14.01,2013-06-04 14:32:00,
2013-06-04 08:37:00,37.8,34.8,30.22,North,11,6.7,6.7,89,0.00,,OVC016,0.00,VWS V14.01,2013-06-04 14:37:00,
2013-06-04 08:42:00,37.6,35.2,30.22,NNW,335,3.1,6.7,91,0.00,,OVC016,0.00,VWS V14.01,2013-06-04 14:42:00,
2013-06-04 08:47:00,37.6,35.5,30.22,North,357,4.0,6.7,92,0.00,,OVC016,0.00,VWS V14.01,2013-06-04 14:47:00,
2013-06-04 08:52:00,37.9,36.1,30.22,North,7,7.2,7.2,93,0.00,,OVC016,0.00,VWS V14.01,2013-06-04 14:52:00,
2013-06-04 08:57:00,37.9,36.1,30.22,NNW,338,4.9,8.3,93,0.00,,OVC016,0.00,VWS V14.01,2013-06-04 14:57:00,
2013-06-04 09:02:00,38.1,36.3,30.22,North,353,3.1,5.8,93,0.00,,OVC016,0.00,VWS V14.01,2013-06-04 15:02:00,
2013-06-04 09:07:00,38.1,36.3,30.22,NNW,340,5.4,8.3,93,0.00,,OVC022,0.00,VWS V14.01,2013-06-04 15:07:00,
2013-06-04 09:12:00,38.1,36.0,30.22,North,353,6.3,11.0,92,0.00,,OVC022,0.00,VWS V14.01,2013-06-04 15:12:00,
2013-06-04 09:17:00,38.1,36.3,30.22,North,8,6.3,11.0,93,0.00,,OVC022,0.00,VWS V14.01,2013-06-04 15:17:00,
2013-06-04 09:22:00,37.8,35.9,30.22,NNW,337,4.9,11.0,93,0.00,,OVC022,0.00,VWS V14.01,2013-06-04 15:22:00,
2013-06-04 09:27:00,38.7,36.8,30.22,NNW,333,5.4,11.0,93,0.00,,OVC022,0.00,VWS V14.01,2013-06-04 15:27:00,
2013-06-04 09:32:00,37.6,35.7,30.22,North,0,4.9,6.3,93,0.00,,OVC022,0.00,VWS V14.01,2013-06-04 15:32:00,
2013-06-04 09:37:00,36.7,34.8,30.22,NNE,15,8.1,8.7,93,0.04,,OVC022,0.04,VWS V14.01,2013-06-04 15:37:00,
2013-06-04 09:42:00,37.0,35.5,30.22,NNW,338,5.4,8.7,94,0.04,,OVC022,0.04,VWS V14.01,2013-06-04 15:42:00,
2013-06-04 09:47:00,36.7,35.1,30.22,NNW,344,3.6,8.7,94,0.04,,OVC022,0.04,VWS V14.01,2013-06-04 15:47:00,
2013-06-04 09:52:00,37.0,35.5,30.22,North,357,4.0,8.7,94,0.04,,OVC022,0.04,VWS V14.01,2013-06-04 15:52:00,
2013-06-04 09:57:00,37.0,35.5,30.22,North,353,5.4,10.1,94,0.04,,OVC022,0.04,VWS V14.01,2013-06-04 15:57:00,
2013-06-04 10:02:00,36.7,35.1,30.22,North,5,6.3,8.3,94,0.04,,OVC022,0.04,VWS V14.01,2013-06-04 16:02:00,
2013-06-04 10:07:00,37.0,35.5,30.22,NW,307,9.2,11.0,94,0.04,,OVC021,0.04,VWS V14.01,2013-06-04 16:07:00,
2013-06-04 10:12:00,37.0,35.5,30.22,NW,313,8.3,11.0,94,0.04,,OVC021,0.04,VWS V14.01,2013-06-04 16:12:00,
2013-06-04 10:17:00,37.6,35.7,30.22,NNW,330,6.3,11.0,93,0.04,,OVC021,0.04,VWS V14.01,2013-06-04 16:17:00,
2013-06-04 10:22:00,37.8,36.2,30.22,NNW,335,5.4,11.0,94,0.04,,OVC021,0.04,VWS V14.01,2013-06-04 16:22:00,
2013-06-04 10:27:00,37.4,35.6,30.22,NNW,332,5.4,11.0,93,0.08,,OVC021,0.08,VWS V14.01,2013-06-04 16:27:00,
2013-06-04 10:32:00,37.8,36.2,30.22,NNW,339,7.2,8.3,94,0.08,,OVC021,0.08,VWS V14.01,2013-06-04 16:32:00,
2013-06-04 10:37:00,37.8,36.2,30.22,North,349,8.1,11.0,94,0.08,,OVC021,0.08,VWS V14.01,2013-06-04 16:37:00,
2013-06-04 10:42:00,37.2,35.7,30.22,NNW,341,8.7,11.0,94,0.08,,OVC021,0.08,VWS V14.01,2013-06-04 16:42:00,
2013-06-04 10:47:00,37.2,35.7,30.22,NW,322,7.6,11.0,94,0.08,,OVC021,0.08,VWS V14.01,2013-06-04 16:47:00,
2013-06-04 10:52:00,37.6,36.0,30.22,NNW,332,5.8,11.0,94,0.08,,OVC021,0.08,VWS V14.01,2013-06-04 16:52:00,
2013-06-04 10:57:00,36.9,35.6,30.22,NNW,329,8.7,11.0,95,0.08,,OVC021,0.08,VWS V14.01,2013-06-04 16:57:00,
2013-06-04 11:02:00,37.2,35.9,30.22,NW,324,8.7,8.7,95,0.04,,OVC021,0.08,VWS V14.01,2013-06-04 17:02:00,
2013-06-04 11:07:00,37.6,36.0,30.25,NW,318,8.1,11.0,94,0.04,,OVC020,0.08,VWS V14.01,2013-06-04 17:07:00,
2013-06-04 11:12:00,36.9,35.3,30.25,NNW,345,6.3,11.0,94,0.04,,OVC020,0.08,VWS V14.01,2013-06-04 17:12:00,
2013-06-04 11:17:00,37.2,35.7,30.25,NNW,334,8.1,11.0,94,0.04,,OVC020,0.08,VWS V14.01,2013-06-04 17:17:00,
2013-06-04 11:22:00,38.5,36.9,30.25,NNW,334,6.7,11.0,94,0.04,,OVC020,0.08,VWS V14.01,2013-06-04 17:22:00,
2013-06-04 11:27:00,39.4,37.2,30.25,NW,317,8.7,12.8,92,0.04,,OVC020,0.08,VWS V14.01,2013-06-04 17:27:00,
2013-06-04 11:32:00,39.9,37.5,30.25,NW,304,10.5,13.2,91,0.00,,OVC020,0.08,VWS V14.01,2013-06-04 17:32:00,
2013-06-04 11:37:00,40.5,38.0,30.25,North,357,8.1,13.2,91,0.00,,OVC020,0.08,VWS V14.01,2013-06-04 17:37:00,
2013-06-04 11:42:00,39.7,37.0,30.25,North,353,7.2,13.2,90,0.00,,OVC020,0.08,VWS V14.01,2013-06-04 17:42:00,
2013-06-04 11:47:00,39.6,37.2,30.25,NNW,332,12.3,13.6,91,0.00,,OVC020,0.08,VWS V14.01,2013-06-04 17:47:00,
2013-06-04 11:52:00,40.5,38.3,30.25,NNW,328,12.3,13.6,92,0.04,,OVC020,0.12,VWS V14.01,2013-06-04 17:52:00,
2013-06-04 11:57:00,39.4,36.4,30.25,North,353,6.3,14.1,89,0.04,,OVC020,0.12,VWS V14.01,2013-06-04 17:57:00,
2013-06-04 12:02:00,39.7,36.8,30.25,NW,319,8.3,10.5,89,0.04,,OVC020,0.12,VWS V14.01,2013-06-04 18:02:00,
2013-06-04 12:07:00,41.0,37.4,30.25,NNE,14,10.5,12.8,87,0.04,,OVC020,0.12,VWS V14.01,2013-06-04 18:07:00,
2013-06-04 12:12:00,41.0,37.7,30.25,NNW,330,12.3,15.0,88,0.04,,OVC020,0.12,VWS V14.01,2013-06-04 18:12:00,
2013-06-04 12:17:00,41.5,38.5,30.25,NW,323,5.8,15.0,89,0.04,,OVC020,0.12,VWS V14.01,2013-06-04 18:17:00,
2013-06-04 12:22:00,41.7,38.1,30.25,WNW,286,8.3,15.0,87,0.04,,OVC020,0.12,VWS V14.01,2013-06-04 18:22:00,
2013-06-04 12:27:00,40.5,37.2,30.25,WNW,300,10.5,15.0,88,0.04,,OVC020,0.12,VWS V14.01,2013-06-04 18:27:00,
2013-06-04 12:32:00,40.3,37.3,30.25,NNW,338,12.8,12.8,89,0.04,,OVC020,0.12,VWS V14.01,2013-06-04 18:32:00,
2013-06-04 12:37:00,40.6,37.4,30.25,NNW,330,7.6,13.2,88,0.04,,OVC020,0.12,VWS V14.01,2013-06-04 18:37:00,
2013-06-04 12:42:00,42.1,39.1,30.25,North,353,11.0,15.4,89,0.04,,OVC020,0.12,VWS V14.01,2013-06-04 18:42:00,
2013-06-04 12:47:00,41.5,37.7,30.25,North,0,8.3,15.4,86,0.04,,OVC020,0.12,VWS V14.01,2013-06-04 18:47:00,
2013-06-04 12:52:00,41.5,38.0,30.25,North,0,10.1,15.4,87,0.04,,OVC020,0.12,VWS V14.01,2013-06-04 18:52:00,
2013-06-04 12:57:00,40.8,36.7,30.25,NNW,346,12.3,15.4,85,0.04,,OVC020,0.12,VWS V14.01,2013-06-04 18:57:00,
2013-06-04 13:02:00,41.5,37.7,30.25,NW,324,7.6,8.3,86,0.00,,OVC020,0.12,VWS V14.01,2013-06-04 19:02:00,
2013-06-04 13:07:00,42.3,38.7,30.25,NW,317,9.6,17.9,87,0.00,,OVC018,0.12,VWS V14.01,2013-06-04 19:07:00,
2013-06-04 13:12:00,43.0,36.6,30.25,NW,325,12.8,17.9,78,0.00,,OVC018,0.12,VWS V14.01,2013-06-04 19:12:00,
2013-06-04 13:17:00,43.5,37.1,30.25,North,0,9.2,17.9,78,0.00,,OVC018,0.12,VWS V14.01,2013-06-04 19:17:00,
2013-06-04 13:22:00,43.5,35.5,30.25,NW,322,8.1,17.9,73,0.00,,OVC018,0.12,VWS V14.01,2013-06-04 19:22:00,
2013-06-04 13:27:00,42.6,34.2,30.25,NNW,348,10.5,17.9,72,0.00,,OVC018,0.12,VWS V14.01,2013-06-04 19:27:00,
2013-06-04 13:32:00,41.2,34.8,30.25,NNW,339,10.5,10.5,78,0.00,,OVC018,0.12,VWS V14.01,2013-06-04 19:32:00,
2013-06-04 13:37:00,42.6,36.2,30.25,NNW,339,8.3,14.1,78,0.00,,OVC018,0.12,VWS V14.01,2013-06-04 19:37:00,
2013-06-04 13:42:00,42.6,36.2,30.25,NW,325,8.7,14.5,78,0.00,,OVC018,0.12,VWS V14.01,2013-06-04 19:42:00,
2013-06-04 13:47:00,43.2,36.8,30.25,NW,322,13.2,14.5,78,0.00,,OVC018,0.12,VWS V14.01,2013-06-04 19:47:00,
2013-06-04 13:52:00,42.4,34.8,30.25,North,357,7.6,15.0,74,0.00,,OVC018,0.12,VWS V14.01,2013-06-04 19:52:00,
2013-06-04 13:57:00,43.7,36.6,30.25,North,0,8.1,15.0,76,0.00,,OVC018,0.12,VWS V14.01,2013-06-04 19:57:00,
2013-06-04 14:02:00,43.7,35.6,30.25,NNW,342,8.7,8.7,73,0.00,,OVC018,0.12,VWS V14.01,2013-06-04 20:02:00,
2013-06-04 14:07:00,45.1,37.0,30.25,NNW,328,10.1,15.0,73,0.00,,OVC024,0.12,VWS V14.01,2013-06-04 20:07:00,
2013-06-04 14:12:00,44.8,35.2,30.25,North,349,8.3,16.3,69,0.00,,OVC024,0.12,VWS V14.01,2013-06-04 20:12:00,
2013-06-04 14:17:00,45.5,35.9,30.25,North,357,8.3,16.3,69,0.00,,OVC024,0.12,VWS V14.01,2013-06-04 20:17:00,
2013-06-04 14:22:00,43.7,33.5,30.25,North,11,9.6,16.3,67,0.00,,OVC024,0.12,VWS V14.01,2013-06-04 20:22:00,
2013-06-04 14:27:00,43.5,35.1,30.25,North,353,8.1,16.3,72,0.00,,OVC024,0.12,VWS V14.01,2013-06-04 20:27:00,
2013-06-04 14:32:00,45.0,35.4,30.25,NNE,17,7.6,12.8,69,0.00,,OVC024,0.12,VWS V14.01,2013-06-04 20:32:00,
2013-06-04 14:37:00,45.3,34.6,30.25,NW,322,10.1,13.2,66,0.00,,OVC024,0.12,VWS V14.01,2013-06-04 20:37:00,
2013-06-04 14:42:00,45.5,36.3,30.25,NW,323,8.3,15.4,70,0.00,,OVC024,0.12,VWS V14.01,2013-06-04 20:42:00,
2013-06-04 14:47:00,45.0,35.8,30.25,North,0,8.1,15.4,70,0.00,,OVC024,0.12,VWS V14.01,2013-06-04 20:47:00,
2013-06-04 14:52:00,44.8,34.9,30.25,North,353,8.1,15.4,68,0.00,,OVC024,0.12,VWS V14.01,2013-06-04 20:52:00,
2013-06-04 14:57:00,43.5,32.9,30.25,North,4,8.7,15.4,66,0.00,,OVC024,0.12,VWS V14.01,2013-06-04 20:57:00,
2013-06-04 15:02:00,44.6,35.1,30.25,North,353,6.3,13.2,69,0.00,,OVC024,0.12,VWS V14.01,2013-06-04 21:02:00,
2013-06-04 15:07:00,45.1,35.2,30.25,NNW,341,13.2,15.0,68,0.00,,OVC026,0.12,VWS V14.01,2013-06-04 21:07:00,
2013-06-04 15:12:00,44.8,34.9,30.25,NNW,342,12.3,15.0,68,0.00,,OVC026,0.12,VWS V14.01,2013-06-04 21:12:00,
2013-06-04 15:17:00,45.5,36.7,30.25,North,3,6.3,15.0,71,0.00,,OVC026,0.12,VWS V14.01,2013-06-04 21:17:00,
2013-06-04 15:22:00,45.0,35.4,30.25,NNW,348,5.8,15.0,69,0.00,,OVC026,0.12,VWS V14.01,2013-06-04 21:22:00,
2013-06-04 15:27:00,44.2,34.7,30.25,NNW,341,8.7,15.0,69,0.00,,OVC026,0.12,VWS V14.01,2013-06-04 21:27:00,
2013-06-04 15:32:00,44.6,35.4,30.25,NW,321,8.1,12.8,70,0.00,,OVC026,0.12,VWS V14.01,2013-06-04 21:32:00,
2013-06-04 15:37:00,44.2,34.7,30.25,NNW,338,6.3,12.8,69,0.00,,OVC026,0.12,VWS V14.01,2013-06-04 21:37:00,
2013-06-04 15:42:00,44.2,34.0,30.25,North,357,6.3,12.8,67,0.00,,OVC026,0.12,VWS V14.01,2013-06-04 21:42:00,
2013-06-04 15:47:00,44.1,33.8,30.25,NNW,340,8.3,12.8,67,0.00,,OVC026,0.12,VWS V14.01,2013-06-04 21:47:00,
2013-06-04 15:52:00,43.7,34.2,30.25,NW,326,3.1,12.8,69,0.00,,OVC026,0.12,VWS V14.01,2013-06-04 21:52:00,
2013-06-04 15:57:00,43.7,32.7,30.25,North,353,8.1,12.8,65,0.00,,OVC026,0.12,VWS V14.01,2013-06-04 21:57:00,
2013-06-04 16:02:00,43.9,33.7,30.25,North,353,8.7,10.5,67,0.00,,OVC026,0.12,VWS V14.01,2013-06-04 22:02:00,
2013-06-04 16:07:00,44.8,34.5,30.28,WNW,300,10.5,11.0,67,0.00,,OVC026,0.12,VWS V14.01,2013-06-04 22:07:00,
2013-06-04 16:12:00,45.0,33.5,30.28,NW,322,5.8,11.0,64,0.00,,OVC026,0.12,VWS V14.01,2013-06-04 22:12:00,
2013-06-04 16:17:00,45.5,34.4,30.28,North,353,8.3,11.0,65,0.00,,OVC026,0.12,VWS V14.01,2013-06-04 22:17:00,
2013-06-04 16:22:00,44.6,33.6,30.28,NNW,329,8.1,11.0,65,0.00,,OVC026,0.12,VWS V14.01,2013-06-04 22:22:00,
2013-06-04 16:27:00,44.2,33.2,30.28,NNW,327,10.1,12.3,65,0.00,,OVC026,0.12,VWS V14.01,2013-06-04 22:27:00,
2013-06-04 16:32:00,44.2,32.8,30.28,North,9,5.4,9.2,64,0.00,,OVC026,0.12,VWS V14.01,2013-06-04 22:32:00,
2013-06-04 16:37:00,44.6,34.3,30.28,NW,322,8.3,9.2,67,0.00,,OVC026,0.12,VWS V14.01,2013-06-04 22:37:00,
2013-06-04 16:42:00,44.6,34.0,30.28,NNW,343,5.4,9.2,66,0.00,,OVC026,0.12,VWS V14.01,2013-06-04 22:42:00,
2013-06-04 16:47:00,44.1,33.4,30.28,WNW,284,8.3,10.5,66,0.00,,OVC026,0.12,VWS V14.01,2013-06-04 22:47:00,
2013-06-04 16:52:00,44.6,34.7,30.28,NW,308,5.8,10.5,68,0.00,,OVC026,0.12,VWS V14.01,2013-06-04 22:52:00,
2013-06-04 16:57:00,44.4,33.4,30.28,NNW,341,7.6,10.5,65,0.00,,OVC026,0.12,VWS V14.01,2013-06-04 22:57:00,
2013-06-04 17:02:00,44.6,33.6,30.28,NW,309,5.4,8.7,65,0.00,,OVC026,0.12,VWS V14.01,2013-06-04 23:02:00,
2013-06-04 17:07:00,45.1,35.2,30.28,WNW,297,8.1,8.7,68,0.00,,OVC028,0.12,VWS V14.01,2013-06-04 23:07:00,
2013-06-04 17:12:00,44.8,33.4,30.28,NW,316,7.6,11.0,64,0.00,,OVC028,0.12,VWS V14.01,2013-06-04 23:12:00,
2013-06-04 17:17:00,45.5,33.7,30.28,NW,320,8.7,11.0,63,0.00,,OVC028,0.12,VWS V14.01,2013-06-04 23:17:00,
2013-06-04 17:22:00,45.1,34.8,30.28,North,8,5.4,12.3,67,0.00,,OVC028,0.12,VWS V14.01,2013-06-04 23:22:00,
2013-06-04 17:27:00,45.1,34.5,30.28,North,5,7.6,12.3,66,0.00,,OVC028,0.12,VWS V14.01,2013-06-04 23:27:00,
2013-06-04 17:32:00,44.8,35.6,30.28,NNW,330,5.4,8.1,70,0.00,,OVC028,0.12,VWS V14.01,2013-06-04 23:32:00,
2013-06-04 17:37:00,46.0,35.3,30.28,NNW,332,5.8,10.5,66,0.00,,OVC028,0.12,VWS V14.01,2013-06-04 23:37:00,
2013-06-04 17:42:00,45.7,35.4,30.28,North,0,5.8,11.4,67,0.00,,OVC028,0.12,VWS V14.01,2013-06-04 23:42:00,
2013-06-04 17:47:00,45.1,36.3,30.28,NNW,342,5.4,11.4,71,0.00,,OVC028,0.12,VWS V14.01,2013-06-04 23:47:00,
2013-06-04 17:52:00,46.2,36.6,30.28,NNW,327,4.0,11.4,69,0.00,,OVC028,0.12,VWS V14.01,2013-06-04 23:52:00,
2013-06-04 17:57:00,48.9,37.7,30.28,NW,322,10.5,11.4,65,0.00,,OVC028,0.12,VWS V14.01,2013-06-04 23:57:00,
2013-06-04 18:02:00,47.5,33.9,30.28,NNW,333,6.3,10.1,59,0.00,,OVC028,0.12,VWS V14.01,2013-06-05 00:02:00,
2013-06-04 18:07:00,47.8,34.6,30.28,North,353,8.3,10.5,60,0.00,,OVC032,0.12,VWS V14.01,2013-06-05 00:07:00,
2013-06-04 18:12:00,46.6,34.3,30.28,NNW,345,8.1,10.5,62,0.00,,OVC032,0.12,VWS V14.01,2013-06-05 00:12:00,
2013-06-04 18:17:00,46.4,34.1,30.28,NNW,334,6.3,11.0,62,0.00,,OVC032,0.12,VWS V14.01,2013-06-05 00:17:00,
2013-06-04 18:22:00,46.6,35.1,30.28,North,353,7.6,11.0,64,0.00,,OVC032,0.12,VWS V14.01,2013-06-05 00:22:00,
2013-06-04 18:27:00,44.6,35.8,30.28,North,357,5.4,11.0,71,0.00,,OVC032,0.12,VWS V14.01,2013-06-05 00:27:00,
2013-06-04 18:32:00,43.5,35.8,30.28,NNW,341,6.3,7.2,74,0.00,,OVC032,0.12,VWS V14.01,2013-06-05 00:32:00,
2013-06-04 18:37:00,43.0,36.0,30.28,North,357,4.0,7.2,76,0.00,,OVC032,0.12,VWS V14.01,2013-06-05 00:37:00,
2013-06-04 18:42:00,42.6,35.9,30.28,NNE,12,4.0,7.2,77,0.00,,OVC032,0.12,VWS V14.01,2013-06-05 00:42:00,
2013-06-04 18:47:00,42.4,36.4,30.28,NNW,328,5.8,7.2,79,0.00,,OVC032,0.12,VWS V14.01,2013-06-05 00:47:00,
2013-06-04 18:52:00,42.6,36.6,30.28,North,0,3.6,8.1,79,0.00,,OVC032,0.12,VWS V14.01,2013-06-05 00:52:00,
2013-06-04 18:57:00,42.4,36.4,30.28,NNW,331,3.6,8.1,79,0.00,,OVC032,0.12,VWS V14.01,2013-06-05 00:57:00,
2013-06-04 19:02:00,42.4,36.4,30.28,NNW,343,4.9,5.8,79,0.00,,OVC032,0.12,VWS V14.01,2013-06-05 01:02:00,
2013-06-04 19:07:00,42.4,36.7,30.28,North,0,3.6,7.2,80,0.00,,OVC037,0.12,VWS V14.01,2013-06-05 01:07:00,
2013-06-04 19:12:00,42.3,36.2,30.28,North,2,5.4,7.2,79,0.00,,OVC037,0.12,VWS V14.01,2013-06-05 01:12:00,
2013-06-04 19:17:00,42.1,36.4,30.28,North,353,6.3,7.2,80,0.00,,OVC037,0.12,VWS V14.01,2013-06-05 01:17:00,
2013-06-04 19:22:00,42.1,35.7,30.28,NNW,335,5.4,7.6,78,0.00,,OVC037,0.12,VWS V14.01,2013-06-05 01:22:00,
2013-06-04 19:27:00,42.1,36.4,30.28,North,5,3.6,7.6,80,0.00,,OVC037,0.12,VWS V14.01,2013-06-05 01:27:00,
2013-06-04 19:32:00,42.3,36.5,30.28,NNE,12,4.9,4.9,80,0.00,,OVC037,0.12,VWS V14.01,2013-06-05 01:32:00,
2013-06-04 19:37:00,42.1,36.0,30.28,NNW,342,3.6,7.6,79,0.00,,OVC037,0.12,VWS V14.01,2013-06-05 01:37:00,
2013-06-04 19:42:00,42.1,36.4,30.28,NNW,346,6.3,7.6,80,0.00,,OVC037,0.12,VWS V14.01,2013-06-05 01:42:00,
2013-06-04 19:47:00,42.1,37.0,30.28,North,4,3.6,7.6,82,0.00,,OVC037,0.12,VWS V14.01,2013-06-05 01:47:00,
2013-06-04 19:52:00,41.9,36.8,30.28,NNE,22,5.4,7.6,82,0.00,,OVC037,0.12,VWS V14.01,2013-06-05 01:52:00,
2013-06-04 19:57:00,41.7,36.6,30.28,North,353,3.1,7.6,82,0.00,,OVC037,0.12,VWS V14.01,2013-06-05 01:57:00,
2013-06-04 20:02:00,41.7,36.3,30.28,North,353,3.1,4.9,81,0.00,,OVC037,0.12,VWS V14.01,2013-06-05 02:02:00,
2013-06-04 20:07:00,41.7,37.0,30.28,North,7,4.0,5.8,83,0.00,,OVC038,0.12,VWS V14.01,2013-06-05 02:07:00,
2013-06-04 20:12:00,41.7,37.0,30.28,North,0,5.4,6.3,83,0.00,,OVC038,0.12,VWS V14.01,2013-06-05 02:12:00,
2013-06-04 20:17:00,41.4,36.0,30.28,North,0,4.9,6.3,81,0.00,,OVC038,0.12,VWS V14.01,2013-06-05 02:17:00,
2013-06-04 20:22:00,41.4,36.3,30.28,NNE,15,4.0,6.3,82,0.00,,OVC038,0.12,VWS V14.01,2013-06-05 02:22:00,
2013-06-04 20:27:00,41.2,36.1,30.28,North,0,2.7,6.3,82,0.00,,OVC038,0.12,VWS V14.01,2013-06-05 02:27:00,
2013-06-04 20:32:00,41.2,36.1,30.28,NNE,15,3.1,5.8,82,0.00,,OVC038,0.12,VWS V14.01,2013-06-05 02:32:00,
2013-06-04 20:37:00,41.2,36.1,30.28,North,9,3.1,5.8,82,0.00,,OVC038,0.12,VWS V14.01,2013-06-05 02:37:00,
2013-06-04 20:42:00,41.0,35.9,30.28,NNE,12,4.0,6.7,82,0.00,,OVC038,0.12,VWS V14.01,2013-06-05 02:42:00,
2013-06-04 20:47:00,40.8,36.1,30.28,NNE,26,3.6,6.7,83,0.00,,OVC038,0.12,VWS V14.01,2013-06-05 02:47:00,
2013-06-04 20:52:00,40.8,36.1,30.28,North,7,3.6,6.7,83,0.00,,OVC038,0.12,VWS V14.01,2013-06-05 02:52:00,
2013-06-04 20:57:00,40.6,36.2,30.28,North,353,3.6,6.7,84,0.00,,OVC038,0.12,VWS V14.01,2013-06-05 02:57:00,
2013-06-04 21:02:00,40.6,36.2,30.28,North,8,2.2,3.1,84,0.00,,OVC038,0.12,VWS V14.01,2013-06-05 03:02:00,
2013-06-04 21:07:00,40.6,36.5,30.28,North,0,3.1,4.0,85,0.00,,OVC040,0.12,VWS V14.01,2013-06-05 03:07:00,
2013-06-04 21:12:00,40.5,36.6,30.28,NNW,338,3.6,5.4,86,0.00,,OVC040,0.12,VWS V14.01,2013-06-05 03:12:00,
2013-06-04 21:17:00,40.3,36.7,30.28,NNW,329,0.0,5.4,87,0.00,,OVC040,0.12,VWS V14.01,2013-06-05 03:17:00,
2013-06-04 21:22:00,40.3,37.0,30.28,North,350,2.2,5.4,88,0.00,,OVC040,0.12,VWS V14.01,2013-06-05 03:22:00,
2013-06-04 21:27:00,40.3,37.0,30.28,North,0,2.7,5.4,88,0.00,,OVC040,0.12,VWS V14.01,2013-06-05 03:27:00,
2013-06-04 21:32:00,40.3,36.7,30.28,North,0,0.0,0.0,87,0.00,,OVC040,0.12,VWS V14.01,2013-06-05 03:32:00,
2013-06-04 21:37:00,40.3,37.0,30.31,NNW,330,2.7,3.6,88,0.00,,OVC040,0.12,VWS V14.01,2013-06-05 03:37:00,
2013-06-04 21:42:00,40.3,36.7,30.31,NNW,345,0.0,4.0,87,0.00,,OVC040,0.12,VWS V14.01,2013-06-05 03:42:00,
2013-06-04 21:47:00,40.3,36.7,30.31,NNW,328,4.0,4.0,87,0.00,,OVC040,0.12,VWS V14.01,2013-06-05 03:47:00,
2013-06-04 21:52:00,40.3,36.4,30.31,North,6,2.2,4.0,86,0.00,,OVC040,0.12,VWS V14.01,2013-06-05 03:52:00,
2013-06-04 21:57:00,40.3,36.1,30.31,North,6,0.0,4.0,85,0.00,,OVC040,0.12,VWS V14.01,2013-06-05 03:57:00,
2013-06-04 22:01:00,40.3,36.1,30.31,North,6,0.0,4.0,85,0.00,,OVC040,0.12,VWS V14.01,2013-06-05 04:01:00,
2013-06-04 22:06:00,40.3,36.1,30.31,North,6,0.0,0.0,85,0.00,,OVC038,0.12,VWS V14.01,2013-06-05 04:06:00,
2013-06-04 22:11:00,40.3,36.1,30.31,North,6,0.0,0.0,85,0.00,,OVC038,0.12,VWS V14.01,2013-06-05 04:11:00,
2013-06-04 22:16:00,40.3,36.1,30.31,North,6,0.0,0.0,85,0.00,,OVC038,0.12,VWS V14.01,2013-06-05 04:16:00,
2013-06-04 22:21:00,40.3,36.1,30.31,North,6,0.0,0.0,85,0.00,,OVC038,0.12,VWS V14.01,2013-06-05 04:21:00,
2013-06-04 22:26:00,40.3,36.1,30.31,North,6,0.0,0.0,85,0.00,,OVC038,0.12,VWS V14.01,2013-06-05 04:26:00,
2013-06-04 22:31:00,40.3,36.1,30.31,NNE,17,0.0,0.0,85,0.00,,OVC038,0.12,VWS V14.01,2013-06-05 04:31:00,
2013-06-04 22:36:00,40.3,36.1,30.31,NNE,17,0.0,0.0,85,0.00,,OVC038,0.12,VWS V14.01,2013-06-05 04:36:00,
2013-06-04 22:41:00,40.3,36.1,30.31,ENE,75,0.0,0.0,85,0.00,,OVC038,0.12,VWS V14.01,2013-06-05 04:41:00,
2013-06-04 22:46:00,40.3,36.4,30.31,East,81,0.0,0.0,86,0.00,,OVC038,0.12,VWS V14.01,2013-06-05 04:46:00,
2013-06-04 22:51:00,40.3,36.4,30.31,East,87,0.0,0.0,86,0.00,,OVC038,0.12,VWS V14.01,2013-06-05 04:51:00,
2013-06-04 22:56:00,40.3,36.4,30.31,East,89,0.0,0.0,86,0.00,,OVC038,0.12,VWS V14.01,2013-06-05 04:56:00,
2013-06-04 23:01:00,40.1,36.3,30.31,SSE,160,2.7,3.6,86,0.00,,OVC038,0.12,VWS V14.01,2013-06-05 05:01:00,
2013-06-04 23:06:00,40.1,36.3,30.31,SSE,160,0.0,2.7,86,0.00,,OVC042,0.12,VWS V14.01,2013-06-05 05:06:00,
2013-06-04 23:11:00,39.9,36.1,30.31,SSE,160,0.0,2.7,86,0.00,,OVC042,0.12,VWS V14.01,2013-06-05 05:11:00,
2013-06-04 23:16:00,39.9,36.1,30.31,SSE,160,0.0,2.7,86,0.00,,OVC042,0.12,VWS V14.01,2013-06-05 05:16:00,
2013-06-04 23:21:00,39.6,35.7,30.31,SSE,166,0.0,2.7,86,0.00,,OVC042,0.12,VWS V14.01,2013-06-05 05:21:00,
2013-06-04 23:25:00,38.8,35.3,30.31,SSW,195,0.0,2.7,87,0.00,,OVC042,0.12,VWS V14.01,2013-06-05 05:25:00,
2013-06-04 23:31:00,37.9,35.0,30.31,SSW,200,0.0,2.7,89,0.00,,OVC042,0.12,VWS V14.01,2013-06-05 05:31:00,
2013-06-04 23:35:00,36.9,34.5,30.31,SSW,200,0.0,0.0,91,0.00,,OVC042,0.12,VWS V14.01,2013-06-05 05:35:00,
2013-06-04 23:40:00,36.3,33.7,30.31,SSW,200,0.0,0.0,90,0.00,,OVC042,0.12,VWS V14.01,2013-06-05 05:40:00,
2013-06-04 23:45:00,35.8,33.4,30.31,SSW,200,0.0,0.0,91,0.00,,OVC042,0.12,VWS V14.01,2013-06-05 05:45:00,
2013-06-04 23:50:00,34.9,32.5,30.31,SSW,200,0.0,0.0,91,0.00,,OVC042,0.12,VWS V14.01,2013-06-05 05:50:00,
2013-06-04 23:55:00,34.7,32.6,30.31,SSW,200,0.0,0.0,92,0.00,,OVC042,0.12,VWS V14.01,2013-06-05 05:55:00,